sensor_id;sensor_type;location;lat;lon;timestamp;P1;durP1;ratioP1;P2;durP2;ratioP2
9117;SDS011;4594;50.994;7.126;2023-02-13T00:02:15;10.87;;;7.07;;
9117;SDS011;4594;50.994;7.126;2023-02-13T00:04:41;9.67;;;6.97;;
9117;SDS011;4594;50.994;7.126;2023-02-13T00:07:07;10.63;;;7.70;;
9117;SDS011;4594;50.994;7.126;2023-02-13T00:09:36;10.10;;;7.63;;
9117;SDS011;4594;50.994;7.126;2023-02-13T00:12:03;10.60;;;7.50;;
9117;SDS011;4594;50.994;7.126;2023-02-13T00:14:33;9.50;;;7.37;;
9117;SDS011;4594;50.994;7.126;2023-02-13T00:17:00;10.07;;;7.20;;
9117;SDS011;4594;50.994;7.126;2023-02-13T00:19:26;11.07;;;8.23;;
9117;SDS011;4594;50.994;7.126;2023-02-13T00:21:52;11.77;;;8.17;;
9117;SDS011;4594;50.994;7.126;2023-02-13T00:24:18;10.77;;;7.70;;
9117;SDS011;4594;50.994;7.126;2023-02-13T00:26:43;9.83;;;7.87;;
9117;SDS011;4594;50.994;7.126;2023-02-13T00:29:09;10.77;;;7.20;;
9117;SDS011;4594;50.994;7.126;2023-02-13T00:31:35;10.33;;;7.33;;
9117;SDS011;4594;50.994;7.126;2023-02-13T00:34:00;10.30;;;7.00;;
9117;SDS011;4594;50.994;7.126;2023-02-13T00:36:26;9.90;;;7.50;;
9117;SDS011;4594;50.994;7.126;2023-02-13T00:38:52;9.20;;;7.30;;
9117;SDS011;4594;50.994;7.126;2023-02-13T00:41:19;10.37;;;7.57;;
9117;SDS011;4594;50.994;7.126;2023-02-13T00:43:45;10.97;;;7.27;;
9117;SDS011;4594;50.994;7.126;2023-02-13T00:46:12;11.87;;;7.33;;
9117;SDS011;4594;50.994;7.126;2023-02-13T00:48:39;10.67;;;7.37;;
9117;SDS011;4594;50.994;7.126;2023-02-13T00:51:05;12.13;;;7.97;;
9117;SDS011;4594;50.994;7.126;2023-02-13T00:53:32;12.13;;;7.50;;
9117;SDS011;4594;50.994;7.126;2023-02-13T00:55:59;9.37;;;7.27;;
9117;SDS011;4594;50.994;7.126;2023-02-13T00:58:25;13.20;;;7.93;;
9117;SDS011;4594;50.994;7.126;2023-02-13T01:00:52;11.40;;;7.50;;
9117;SDS011;4594;50.994;7.126;2023-02-13T01:03:18;11.33;;;7.53;;
9117;SDS011;4594;50.994;7.126;2023-02-13T01:05:46;9.77;;;7.43;;
9117;SDS011;4594;50.994;7.126;2023-02-13T01:08:13;10.63;;;7.53;;
9117;SDS011;4594;50.994;7.126;2023-02-13T01:10:40;9.93;;;7.10;;
9117;SDS011;4594;50.994;7.126;2023-02-13T01:13:07;10.13;;;7.87;;
9117;SDS011;4594;50.994;7.126;2023-02-13T01:15:34;10.47;;;7.63;;
9117;SDS011;4594;50.994;7.126;2023-02-13T01:18:00;11.77;;;7.30;;
9117;SDS011;4594;50.994;7.126;2023-02-13T01:20:26;10.03;;;7.07;;
9117;SDS011;4594;50.994;7.126;2023-02-13T01:22:53;7.47;;;6.47;;
9117;SDS011;4594;50.994;7.126;2023-02-13T01:25:19;9.27;;;6.73;;
9117;SDS011;4594;50.994;7.126;2023-02-13T01:27:46;10.30;;;6.77;;
9117;SDS011;4594;50.994;7.126;2023-02-13T01:30:12;9.80;;;7.07;;
9117;SDS011;4594;50.994;7.126;2023-02-13T01:32:40;9.70;;;7.37;;
9117;SDS011;4594;50.994;7.126;2023-02-13T01:35:08;8.10;;;6.20;;
9117;SDS011;4594;50.994;7.126;2023-02-13T01:37:35;9.67;;;6.53;;
9117;SDS011;4594;50.994;7.126;2023-02-13T01:40:03;11.00;;;6.90;;
9117;SDS011;4594;50.994;7.126;2023-02-13T01:42:31;8.60;;;6.90;;
9117;SDS011;4594;50.994;7.126;2023-02-13T01:45:03;10.97;;;7.20;;
9117;SDS011;4594;50.994;7.126;2023-02-13T01:53:06;7.57;;;6.40;;
9117;SDS011;4594;50.994;7.126;2023-02-13T01:55:48;8.07;;;6.77;;
9117;SDS011;4594;50.994;7.126;2023-02-13T01:58:23;8.70;;;6.50;;
9117;SDS011;4594;50.994;7.126;2023-02-13T02:00:57;7.93;;;6.27;;
9117;SDS011;4594;50.994;7.126;2023-02-13T02:03:25;6.60;;;5.73;;
9117;SDS011;4594;50.994;7.126;2023-02-13T02:05:57;7.67;;;5.90;;
9117;SDS011;4594;50.994;7.126;2023-02-13T02:08:26;8.53;;;6.20;;
9117;SDS011;4594;50.994;7.126;2023-02-13T02:10:54;8.07;;;6.47;;
9117;SDS011;4594;50.994;7.126;2023-02-13T02:13:25;6.63;;;5.93;;
9117;SDS011;4594;50.994;7.126;2023-02-13T02:15:51;7.33;;;5.70;;
9117;SDS011;4594;50.994;7.126;2023-02-13T02:18:18;8.17;;;6.33;;
9117;SDS011;4594;50.994;7.126;2023-02-13T02:32:36;8.43;;;6.33;;
9117;SDS011;4594;50.994;7.126;2023-02-13T02:38:20;6.30;;;5.70;;
9117;SDS011;4594;50.994;7.126;2023-02-13T02:41:18;8.33;;;6.20;;
9117;SDS011;4594;50.994;7.126;2023-02-13T02:47:26;7.03;;;5.80;;
9117;SDS011;4594;50.994;7.126;2023-02-13T02:50:43;8.57;;;6.40;;
9117;SDS011;4594;50.994;7.126;2023-02-13T02:53:37;6.30;;;5.70;;
9117;SDS011;4594;50.994;7.126;2023-02-13T02:56:25;7.10;;;5.90;;
9117;SDS011;4594;50.994;7.126;2023-02-13T02:59:06;7.93;;;6.30;;
9117;SDS011;4594;50.994;7.126;2023-02-13T03:01:58;6.97;;;6.20;;
9117;SDS011;4594;50.994;7.126;2023-02-13T03:04:45;6.83;;;6.13;;
9117;SDS011;4594;50.994;7.126;2023-02-13T03:07:36;6.80;;;5.77;;
9117;SDS011;4594;50.994;7.126;2023-02-13T03:10:06;6.87;;;5.93;;
9117;SDS011;4594;50.994;7.126;2023-02-13T03:13:14;6.83;;;6.03;;
9117;SDS011;4594;50.994;7.126;2023-02-13T03:16:09;6.33;;;5.70;;
9117;SDS011;4594;50.994;7.126;2023-02-13T03:19:01;6.40;;;5.50;;
9117;SDS011;4594;50.994;7.126;2023-02-13T03:27:31;8.23;;;6.50;;
9117;SDS011;4594;50.994;7.126;2023-02-13T03:30:55;7.17;;;6.37;;
9117;SDS011;4594;50.994;7.126;2023-02-13T03:39:55;7.63;;;6.63;;
9117;SDS011;4594;50.994;7.126;2023-02-13T03:42:47;7.43;;;6.07;;
9117;SDS011;4594;50.994;7.126;2023-02-13T03:45:30;8.53;;;6.17;;
9117;SDS011;4594;50.994;7.126;2023-02-13T03:48:17;8.70;;;6.90;;
9117;SDS011;4594;50.994;7.126;2023-02-13T03:51:11;7.70;;;6.70;;
9117;SDS011;4594;50.994;7.126;2023-02-13T03:53:49;9.07;;;6.83;;
9117;SDS011;4594;50.994;7.126;2023-02-13T03:56:23;6.90;;;6.20;;
9117;SDS011;4594;50.994;7.126;2023-02-13T03:59:17;7.97;;;6.43;;
9117;SDS011;4594;50.994;7.126;2023-02-13T04:01:57;8.10;;;6.10;;
9117;SDS011;4594;50.994;7.126;2023-02-13T04:04:42;7.67;;;6.57;;
9117;SDS011;4594;50.994;7.126;2023-02-13T04:07:17;7.53;;;6.73;;
9117;SDS011;4594;50.994;7.126;2023-02-13T04:09:57;13.10;;;7.20;;
9117;SDS011;4594;50.994;7.126;2023-02-13T04:15:13;8.80;;;6.67;;
9117;SDS011;4594;50.994;7.126;2023-02-13T04:17:47;8.73;;;7.23;;
9117;SDS011;4594;50.994;7.126;2023-02-13T04:20:41;8.37;;;6.67;;
9117;SDS011;4594;50.994;7.126;2023-02-13T04:23:08;10.03;;;7.30;;
9117;SDS011;4594;50.994;7.126;2023-02-13T04:25:36;8.67;;;7.20;;
9117;SDS011;4594;50.994;7.126;2023-02-13T04:28:05;9.73;;;7.40;;
9117;SDS011;4594;50.994;7.126;2023-02-13T04:30:31;8.90;;;8.00;;
9117;SDS011;4594;50.994;7.126;2023-02-13T04:32:57;9.63;;;7.37;;
9117;SDS011;4594;50.994;7.126;2023-02-13T04:35:23;9.63;;;7.80;;
9117;SDS011;4594;50.994;7.126;2023-02-13T04:37:49;13.50;;;7.77;;
9117;SDS011;4594;50.994;7.126;2023-02-13T04:40:15;8.50;;;6.97;;
9117;SDS011;4594;50.994;7.126;2023-02-13T04:42:41;9.20;;;7.33;;
9117;SDS011;4594;50.994;7.126;2023-02-13T04:45:06;10.63;;;7.80;;
9117;SDS011;4594;50.994;7.126;2023-02-13T04:47:33;8.10;;;6.97;;
9117;SDS011;4594;50.994;7.126;2023-02-13T04:49:58;10.43;;;8.67;;
9117;SDS011;4594;50.994;7.126;2023-02-13T04:52:24;14.03;;;8.37;;
9117;SDS011;4594;50.994;7.126;2023-02-13T04:54:50;10.10;;;7.93;;
9117;SDS011;4594;50.994;7.126;2023-02-13T04:57:16;7.93;;;7.07;;
9117;SDS011;4594;50.994;7.126;2023-02-13T04:59:41;8.33;;;7.13;;
9117;SDS011;4594;50.994;7.126;2023-02-13T05:02:07;7.67;;;6.83;;
9117;SDS011;4594;50.994;7.126;2023-02-13T05:04:33;9.90;;;7.70;;
9117;SDS011;4594;50.994;7.126;2023-02-13T05:06:59;10.57;;;8.07;;
9117;SDS011;4594;50.994;7.126;2023-02-13T05:09:24;8.13;;;7.30;;
9117;SDS011;4594;50.994;7.126;2023-02-13T05:11:51;10.50;;;7.77;;
9117;SDS011;4594;50.994;7.126;2023-02-13T05:14:18;10.00;;;7.60;;
9117;SDS011;4594;50.994;7.126;2023-02-13T05:16:44;8.87;;;7.10;;
9117;SDS011;4594;50.994;7.126;2023-02-13T05:19:10;9.87;;;7.73;;
9117;SDS011;4594;50.994;7.126;2023-02-13T05:21:36;9.67;;;7.60;;
9117;SDS011;4594;50.994;7.126;2023-02-13T05:24:20;9.10;;;7.13;;
9117;SDS011;4594;50.994;7.126;2023-02-13T05:26:46;10.53;;;8.13;;
9117;SDS011;4594;50.994;7.126;2023-02-13T05:29:12;11.97;;;8.23;;
9117;SDS011;4594;50.994;7.126;2023-02-13T05:31:48;15.97;;;10.07;;
9117;SDS011;4594;50.994;7.126;2023-02-13T05:34:17;10.60;;;8.17;;
9117;SDS011;4594;50.994;7.126;2023-02-13T05:36:44;12.77;;;8.27;;
9117;SDS011;4594;50.994;7.126;2023-02-13T05:39:10;11.77;;;8.57;;
9117;SDS011;4594;50.994;7.126;2023-02-13T05:41:36;11.80;;;7.80;;
9117;SDS011;4594;50.994;7.126;2023-02-13T05:44:02;9.60;;;8.13;;
9117;SDS011;4594;50.994;7.126;2023-02-13T05:46:29;10.93;;;7.40;;
9117;SDS011;4594;50.994;7.126;2023-02-13T05:48:55;9.10;;;7.80;;
9117;SDS011;4594;50.994;7.126;2023-02-13T05:51:20;12.20;;;9.40;;
9117;SDS011;4594;50.994;7.126;2023-02-13T05:53:46;11.20;;;7.93;;
9117;SDS011;4594;50.994;7.126;2023-02-13T05:56:12;9.20;;;7.63;;
9117;SDS011;4594;50.994;7.126;2023-02-13T05:58:37;10.43;;;8.03;;
9117;SDS011;4594;50.994;7.126;2023-02-13T06:01:03;8.63;;;7.73;;
9117;SDS011;4594;50.994;7.126;2023-02-13T06:03:30;9.30;;;8.07;;
9117;SDS011;4594;50.994;7.126;2023-02-13T06:05:57;10.13;;;7.37;;
9117;SDS011;4594;50.994;7.126;2023-02-13T06:08:24;10.97;;;8.60;;
9117;SDS011;4594;50.994;7.126;2023-02-13T06:10:50;9.97;;;7.60;;
9117;SDS011;4594;50.994;7.126;2023-02-13T06:13:16;11.60;;;8.40;;
9117;SDS011;4594;50.994;7.126;2023-02-13T06:15:42;7.80;;;7.00;;
9117;SDS011;4594;50.994;7.126;2023-02-13T06:18:09;10.83;;;7.60;;
9117;SDS011;4594;50.994;7.126;2023-02-13T06:20:35;10.17;;;8.07;;
9117;SDS011;4594;50.994;7.126;2023-02-13T06:23:02;10.90;;;7.97;;
9117;SDS011;4594;50.994;7.126;2023-02-13T06:25:28;9.67;;;7.37;;
9117;SDS011;4594;50.994;7.126;2023-02-13T06:27:54;10.33;;;8.00;;
9117;SDS011;4594;50.994;7.126;2023-02-13T06:30:20;10.70;;;7.87;;
9117;SDS011;4594;50.994;7.126;2023-02-13T06:32:46;9.60;;;7.67;;
9117;SDS011;4594;50.994;7.126;2023-02-13T06:35:13;9.33;;;8.03;;
9117;SDS011;4594;50.994;7.126;2023-02-13T06:37:40;11.23;;;8.17;;
9117;SDS011;4594;50.994;7.126;2023-02-13T06:40:10;11.27;;;8.10;;
9117;SDS011;4594;50.994;7.126;2023-02-13T06:42:38;11.03;;;8.53;;
9117;SDS011;4594;50.994;7.126;2023-02-13T06:45:05;10.20;;;8.40;;
9117;SDS011;4594;50.994;7.126;2023-02-13T06:47:31;10.10;;;8.30;;
9117;SDS011;4594;50.994;7.126;2023-02-13T06:49:57;10.20;;;8.07;;
9117;SDS011;4594;50.994;7.126;2023-02-13T06:52:23;12.50;;;8.37;;
9117;SDS011;4594;50.994;7.126;2023-02-13T06:54:48;10.70;;;8.07;;
9117;SDS011;4594;50.994;7.126;2023-02-13T06:57:14;10.43;;;7.87;;
9117;SDS011;4594;50.994;7.126;2023-02-13T06:59:41;10.30;;;8.40;;
9117;SDS011;4594;50.994;7.126;2023-02-13T07:02:08;10.87;;;8.03;;
9117;SDS011;4594;50.994;7.126;2023-02-13T07:04:37;13.23;;;9.10;;
9117;SDS011;4594;50.994;7.126;2023-02-13T07:07:03;12.93;;;8.83;;
9117;SDS011;4594;50.994;7.126;2023-02-13T07:09:30;10.43;;;8.10;;
9117;SDS011;4594;50.994;7.126;2023-02-13T07:11:56;12.20;;;8.13;;
9117;SDS011;4594;50.994;7.126;2023-02-13T07:14:22;14.13;;;9.13;;
9117;SDS011;4594;50.994;7.126;2023-02-13T07:16:48;11.43;;;8.23;;
9117;SDS011;4594;50.994;7.126;2023-02-13T07:19:14;10.50;;;8.13;;
9117;SDS011;4594;50.994;7.126;2023-02-13T07:21:39;11.63;;;8.70;;
9117;SDS011;4594;50.994;7.126;2023-02-13T07:24:05;10.70;;;8.63;;
9117;SDS011;4594;50.994;7.126;2023-02-13T07:26:31;11.70;;;8.63;;
9117;SDS011;4594;50.994;7.126;2023-02-13T07:28:57;11.13;;;8.27;;
9117;SDS011;4594;50.994;7.126;2023-02-13T07:31:22;11.70;;;8.33;;
9117;SDS011;4594;50.994;7.126;2023-02-13T07:33:48;12.97;;;8.13;;
9117;SDS011;4594;50.994;7.126;2023-02-13T07:36:14;10.13;;;8.00;;
9117;SDS011;4594;50.994;7.126;2023-02-13T07:38:40;11.83;;;8.77;;
9117;SDS011;4594;50.994;7.126;2023-02-13T07:41:05;9.73;;;7.40;;
9117;SDS011;4594;50.994;7.126;2023-02-13T07:43:31;8.93;;;7.37;;
9117;SDS011;4594;50.994;7.126;2023-02-13T07:46:00;10.87;;;8.03;;
9117;SDS011;4594;50.994;7.126;2023-02-13T07:48:27;9.60;;;7.47;;
9117;SDS011;4594;50.994;7.126;2023-02-13T07:50:58;9.47;;;7.50;;
9117;SDS011;4594;50.994;7.126;2023-02-13T07:53:28;11.30;;;7.17;;
9117;SDS011;4594;50.994;7.126;2023-02-13T07:55:54;9.67;;;7.23;;
9117;SDS011;4594;50.994;7.126;2023-02-13T07:58:20;9.03;;;7.33;;
9117;SDS011;4594;50.994;7.126;2023-02-13T08:00:46;9.17;;;7.03;;
9117;SDS011;4594;50.994;7.126;2023-02-13T08:03:12;8.97;;;6.97;;
9117;SDS011;4594;50.994;7.126;2023-02-13T08:05:37;8.43;;;6.73;;
9117;SDS011;4594;50.994;7.126;2023-02-13T08:08:04;7.43;;;6.53;;
9117;SDS011;4594;50.994;7.126;2023-02-13T08:10:30;8.57;;;6.50;;
9117;SDS011;4594;50.994;7.126;2023-02-13T08:13:15;7.63;;;6.67;;
9117;SDS011;4594;50.994;7.126;2023-02-13T08:15:42;8.50;;;6.50;;
9117;SDS011;4594;50.994;7.126;2023-02-13T08:18:11;8.63;;;6.33;;
9117;SDS011;4594;50.994;7.126;2023-02-13T08:20:37;8.13;;;6.40;;
9117;SDS011;4594;50.994;7.126;2023-02-13T08:23:03;7.93;;;6.33;;
9117;SDS011;4594;50.994;7.126;2023-02-13T08:25:31;7.70;;;6.63;;
9117;SDS011;4594;50.994;7.126;2023-02-13T08:27:58;6.47;;;5.87;;
9117;SDS011;4594;50.994;7.126;2023-02-13T08:30:24;8.03;;;6.40;;
9117;SDS011;4594;50.994;7.126;2023-02-13T08:32:50;7.03;;;6.20;;
9117;SDS011;4594;50.994;7.126;2023-02-13T08:35:16;8.10;;;6.27;;
9117;SDS011;4594;50.994;7.126;2023-02-13T08:37:42;7.80;;;5.83;;
9117;SDS011;4594;50.994;7.126;2023-02-13T08:40:07;6.57;;;5.73;;
9117;SDS011;4594;50.994;7.126;2023-02-13T08:42:34;8.43;;;5.90;;
9117;SDS011;4594;50.994;7.126;2023-02-13T08:45:03;6.90;;;6.10;;
9117;SDS011;4594;50.994;7.126;2023-02-13T08:47:30;6.07;;;5.43;;
9117;SDS011;4594;50.994;7.126;2023-02-13T08:49:56;7.47;;;6.10;;
9117;SDS011;4594;50.994;7.126;2023-02-13T08:52:22;6.57;;;5.87;;
9117;SDS011;4594;50.994;7.126;2023-02-13T08:54:47;7.37;;;6.13;;
9117;SDS011;4594;50.994;7.126;2023-02-13T08:57:13;6.57;;;5.87;;
9117;SDS011;4594;50.994;7.126;2023-02-13T08:59:39;5.53;;;5.03;;
9117;SDS011;4594;50.994;7.126;2023-02-13T09:02:05;7.97;;;5.30;;
9117;SDS011;4594;50.994;7.126;2023-02-13T09:04:31;8.40;;;5.57;;
9117;SDS011;4594;50.994;7.126;2023-02-13T09:06:57;5.50;;;4.93;;
9117;SDS011;4594;50.994;7.126;2023-02-13T09:09:22;5.80;;;5.13;;
9117;SDS011;4594;50.994;7.126;2023-02-13T09:11:48;5.83;;;5.10;;
9117;SDS011;4594;50.994;7.126;2023-02-13T09:14:15;5.57;;;4.97;;
9117;SDS011;4594;50.994;7.126;2023-02-13T09:16:41;6.50;;;5.10;;
9117;SDS011;4594;50.994;7.126;2023-02-13T09:19:07;6.53;;;5.07;;
9117;SDS011;4594;50.994;7.126;2023-02-13T09:21:32;6.50;;;5.80;;
9117;SDS011;4594;50.994;7.126;2023-02-13T09:23:58;5.57;;;5.03;;
9117;SDS011;4594;50.994;7.126;2023-02-13T09:26:24;6.10;;;5.37;;
9117;SDS011;4594;50.994;7.126;2023-02-13T09:28:49;5.17;;;4.67;;
9117;SDS011;4594;50.994;7.126;2023-02-13T09:31:19;9.37;;;5.17;;
9117;SDS011;4594;50.994;7.126;2023-02-13T09:33:47;5.60;;;4.97;;
9117;SDS011;4594;50.994;7.126;2023-02-13T09:36:15;5.90;;;5.10;;
9117;SDS011;4594;50.994;7.126;2023-02-13T09:38:51;8.90;;;5.20;;
9117;SDS011;4594;50.994;7.126;2023-02-13T09:41:20;5.53;;;5.00;;
9117;SDS011;4594;50.994;7.126;2023-02-13T09:43:58;6.57;;;5.13;;
9117;SDS011;4594;50.994;7.126;2023-02-13T09:46:36;6.50;;;5.40;;
9117;SDS011;4594;50.994;7.126;2023-02-13T09:49:06;5.10;;;4.60;;
9117;SDS011;4594;50.994;7.126;2023-02-13T09:51:38;5.50;;;4.90;;
9117;SDS011;4594;50.994;7.126;2023-02-13T09:54:11;5.80;;;5.13;;
9117;SDS011;4594;50.994;7.126;2023-02-13T10:02:34;5.67;;;4.80;;
9117;SDS011;4594;50.994;7.126;2023-02-13T10:16:35;4.23;;;3.87;;
9117;SDS011;4594;50.994;7.126;2023-02-13T10:22:04;3.83;;;3.53;;
9117;SDS011;4594;50.994;7.126;2023-02-13T10:24:56;3.77;;;3.47;;
9117;SDS011;4594;50.994;7.126;2023-02-13T10:27:39;3.77;;;3.47;;
9117;SDS011;4594;50.994;7.126;2023-02-13T10:30:47;4.00;;;3.70;;
9117;SDS011;4594;50.994;7.126;2023-02-13T10:33:20;3.67;;;3.37;;
9117;SDS011;4594;50.994;7.126;2023-02-13T10:36:43;4.57;;;3.30;;
9117;SDS011;4594;50.994;7.126;2023-02-13T10:39:24;4.13;;;3.80;;
9117;SDS011;4594;50.994;7.126;2023-02-13T10:51:43;3.77;;;3.47;;
9117;SDS011;4594;50.994;7.126;2023-02-13T11:01:05;3.63;;;3.33;;
9117;SDS011;4594;50.994;7.126;2023-02-13T11:03:46;4.23;;;3.80;;
9117;SDS011;4594;50.994;7.126;2023-02-13T11:06:35;4.00;;;3.70;;
9117;SDS011;4594;50.994;7.126;2023-02-13T11:09:07;4.63;;;3.97;;
9117;SDS011;4594;50.994;7.126;2023-02-13T11:11:37;4.10;;;3.80;;
9117;SDS011;4594;50.994;7.126;2023-02-13T11:14:14;4.53;;;4.10;;
9117;SDS011;4594;50.994;7.126;2023-02-13T11:16:59;4.97;;;3.93;;
9117;SDS011;4594;50.994;7.126;2023-02-13T11:22:27;4.77;;;3.77;;
9117;SDS011;4594;50.994;7.126;2023-02-13T11:25:20;4.53;;;4.13;;
9117;SDS011;4594;50.994;7.126;2023-02-13T11:27:50;4.53;;;3.97;;
9117;SDS011;4594;50.994;7.126;2023-02-13T11:30:35;5.00;;;4.00;;
9117;SDS011;4594;50.994;7.126;2023-02-13T11:35:47;4.60;;;4.20;;
9117;SDS011;4594;50.994;7.126;2023-02-13T11:38:19;5.43;;;3.97;;
9117;SDS011;4594;50.994;7.126;2023-02-13T11:40:49;4.50;;;4.17;;
9117;SDS011;4594;50.994;7.126;2023-02-13T11:43:45;6.00;;;4.47;;
9117;SDS011;4594;50.994;7.126;2023-02-13T11:48:56;5.03;;;4.60;;
9117;SDS011;4594;50.994;7.126;2023-02-13T11:51:36;5.67;;;5.10;;
9117;SDS011;4594;50.994;7.126;2023-02-13T11:57:21;4.40;;;4.00;;
9117;SDS011;4594;50.994;7.126;2023-02-13T11:59:50;5.83;;;4.50;;
9117;SDS011;4594;50.994;7.126;2023-02-13T12:02:19;4.50;;;4.10;;
9117;SDS011;4594;50.994;7.126;2023-02-13T12:04:48;4.90;;;4.17;;
9117;SDS011;4594;50.994;7.126;2023-02-13T12:09:56;4.10;;;3.70;;
9117;SDS011;4594;50.994;7.126;2023-02-13T12:12:27;4.53;;;3.90;;
9117;SDS011;4594;50.994;7.126;2023-02-13T12:15:03;4.10;;;3.70;;
9117;SDS011;4594;50.994;7.126;2023-02-13T12:17:42;4.43;;;4.03;;
9117;SDS011;4594;50.994;7.126;2023-02-13T12:20:13;4.10;;;3.80;;
9117;SDS011;4594;50.994;7.126;2023-02-13T12:28:12;4.93;;;3.80;;
9117;SDS011;4594;50.994;7.126;2023-02-13T12:36:46;3.63;;;3.33;;
9117;SDS011;4594;50.994;7.126;2023-02-13T12:47:40;6.40;;;3.83;;
9117;SDS011;4594;50.994;7.126;2023-02-13T12:50:56;3.60;;;3.30;;
9117;SDS011;4594;50.994;7.126;2023-02-13T13:27:09;3.57;;;2.80;;
9117;SDS011;4594;50.994;7.126;2023-02-13T13:29:53;4.77;;;2.97;;
9117;SDS011;4594;50.994;7.126;2023-02-13T13:32:37;2.93;;;2.73;;
9117;SDS011;4594;50.994;7.126;2023-02-13T13:35:11;3.10;;;2.60;;
9117;SDS011;4594;50.994;7.126;2023-02-13T13:37:54;2.20;;;2.10;;
9117;SDS011;4594;50.994;7.126;2023-02-13T13:40:58;2.60;;;2.40;;
9117;SDS011;4594;50.994;7.126;2023-02-13T13:50:00;2.30;;;2.20;;
9117;SDS011;4594;50.994;7.126;2023-02-13T13:52:31;2.83;;;2.17;;
9117;SDS011;4594;50.994;7.126;2023-02-13T13:55:02;2.27;;;2.17;;
9117;SDS011;4594;50.994;7.126;2023-02-13T14:02:46;2.70;;;1.80;;
9117;SDS011;4594;50.994;7.126;2023-02-13T14:05:34;6.27;;;1.93;;
9117;SDS011;4594;50.994;7.126;2023-02-13T14:11:04;2.00;;;1.90;;
9117;SDS011;4594;50.994;7.126;2023-02-13T14:13:51;1.90;;;1.80;;
9117;SDS011;4594;50.994;7.126;2023-02-13T14:19:28;2.10;;;2.00;;
9117;SDS011;4594;50.994;7.126;2023-02-13T14:24:50;2.17;;;2.07;;
9117;SDS011;4594;50.994;7.126;2023-02-13T14:27:34;2.10;;;2.00;;
9117;SDS011;4594;50.994;7.126;2023-02-13T14:30:25;2.07;;;1.97;;
9117;SDS011;4594;50.994;7.126;2023-02-13T14:32:57;1.80;;;1.80;;
9117;SDS011;4594;50.994;7.126;2023-02-13T14:35:30;4.03;;;3.00;;
9117;SDS011;4594;50.994;7.126;2023-02-13T14:38:02;33.10;;;3.20;;
9117;SDS011;4594;50.994;7.126;2023-02-13T14:40:41;13.87;;;2.63;;
9117;SDS011;4594;50.994;7.126;2023-02-13T14:43:17;2.20;;;2.00;;
9117;SDS011;4594;50.994;7.126;2023-02-13T14:45:54;2.07;;;1.90;;
9117;SDS011;4594;50.994;7.126;2023-02-13T14:48:32;1.97;;;1.80;;
9117;SDS011;4594;50.994;7.126;2023-02-13T14:51:27;2.10;;;2.00;;
9117;SDS011;4594;50.994;7.126;2023-02-13T14:56:45;2.63;;;1.73;;
9117;SDS011;4594;50.994;7.126;2023-02-13T14:59:16;1.97;;;1.87;;
9117;SDS011;4594;50.994;7.126;2023-02-13T15:01:50;3.03;;;2.20;;
9117;SDS011;4594;50.994;7.126;2023-02-13T15:04:48;1.80;;;1.70;;
9117;SDS011;4594;50.994;7.126;2023-02-13T15:07:28;2.70;;;2.07;;
9117;SDS011;4594;50.994;7.126;2023-02-13T15:10:01;1.93;;;1.90;;
9117;SDS011;4594;50.994;7.126;2023-02-13T15:12:40;2.00;;;1.90;;
9117;SDS011;4594;50.994;7.126;2023-02-13T15:15:22;1.70;;;1.67;;
9117;SDS011;4594;50.994;7.126;2023-02-13T15:17:58;2.23;;;2.13;;
9117;SDS011;4594;50.994;7.126;2023-02-13T15:20:32;1.80;;;1.80;;
9117;SDS011;4594;50.994;7.126;2023-02-13T15:23:01;2.03;;;1.93;;
9117;SDS011;4594;50.994;7.126;2023-02-13T15:25:31;2.33;;;2.13;;
9117;SDS011;4594;50.994;7.126;2023-02-13T15:28:03;1.80;;;1.70;;
9117;SDS011;4594;50.994;7.126;2023-02-13T15:30:33;1.77;;;1.77;;
9117;SDS011;4594;50.994;7.126;2023-02-13T15:33:03;2.77;;;2.57;;
9117;SDS011;4594;50.994;7.126;2023-02-13T15:35:42;4.13;;;2.23;;
9117;SDS011;4594;50.994;7.126;2023-02-13T15:40:55;2.13;;;2.03;;
9117;SDS011;4594;50.994;7.126;2023-02-13T15:43:38;2.03;;;1.93;;
9117;SDS011;4594;50.994;7.126;2023-02-13T15:46:19;10.97;;;5.07;;
9117;SDS011;4594;50.994;7.126;2023-02-13T15:49:06;3.40;;;3.20;;
9117;SDS011;4594;50.994;7.126;2023-02-13T15:51:39;3.77;;;2.70;;
9117;SDS011;4594;50.994;7.126;2023-02-13T15:54:06;2.20;;;2.10;;
9117;SDS011;4594;50.994;7.126;2023-02-13T15:56:52;2.73;;;2.47;;
9117;SDS011;4594;50.994;7.126;2023-02-13T15:59:22;2.27;;;2.17;;
9117;SDS011;4594;50.994;7.126;2023-02-13T16:01:54;1.97;;;1.87;;
9117;SDS011;4594;50.994;7.126;2023-02-13T16:04:24;2.10;;;2.00;;
9117;SDS011;4594;50.994;7.126;2023-02-13T16:06:50;2.00;;;1.90;;
9117;SDS011;4594;50.994;7.126;2023-02-13T16:09:21;2.30;;;2.20;;
9117;SDS011;4594;50.994;7.126;2023-02-13T16:12:02;2.10;;;2.00;;
9117;SDS011;4594;50.994;7.126;2023-02-13T16:14:35;2.00;;;1.80;;
9117;SDS011;4594;50.994;7.126;2023-02-13T16:17:31;1.97;;;1.87;;
9117;SDS011;4594;50.994;7.126;2023-02-13T16:22:49;2.20;;;2.10;;
9117;SDS011;4594;50.994;7.126;2023-02-13T16:28:02;1.90;;;1.80;;
9117;SDS011;4594;50.994;7.126;2023-02-13T16:30:42;4.30;;;2.13;;
9117;SDS011;4594;50.994;7.126;2023-02-13T16:35:43;3.13;;;2.63;;
9117;SDS011;4594;50.994;7.126;2023-02-13T16:38:24;2.53;;;2.33;;
9117;SDS011;4594;50.994;7.126;2023-02-13T16:41:07;3.00;;;2.47;;
9117;SDS011;4594;50.994;7.126;2023-02-13T16:43:58;3.67;;;2.13;;
9117;SDS011;4594;50.994;7.126;2023-02-13T16:51:34;3.30;;;3.00;;
9117;SDS011;4594;50.994;7.126;2023-02-13T16:56:52;2.63;;;2.50;;
9117;SDS011;4594;50.994;7.126;2023-02-13T17:02:42;3.73;;;2.90;;
9117;SDS011;4594;50.994;7.126;2023-02-13T17:05:15;2.40;;;2.30;;
9117;SDS011;4594;50.994;7.126;2023-02-13T17:07:52;2.60;;;2.40;;
9117;SDS011;4594;50.994;7.126;2023-02-13T17:10:26;2.43;;;2.33;;
9117;SDS011;4594;50.994;7.126;2023-02-13T17:12:59;6.37;;;2.50;;
9117;SDS011;4594;50.994;7.126;2023-02-13T17:15:37;2.40;;;2.30;;
9117;SDS011;4594;50.994;7.126;2023-02-13T17:18:07;2.40;;;2.30;;
9117;SDS011;4594;50.994;7.126;2023-02-13T17:20:34;2.57;;;2.43;;
9117;SDS011;4594;50.994;7.126;2023-02-13T17:23:05;3.40;;;2.40;;
9117;SDS011;4594;50.994;7.126;2023-02-13T17:25:37;3.67;;;2.80;;
9117;SDS011;4594;50.994;7.126;2023-02-13T17:28:09;2.40;;;2.30;;
9117;SDS011;4594;50.994;7.126;2023-02-13T17:30:38;3.03;;;2.83;;
9117;SDS011;4594;50.994;7.126;2023-02-13T17:33:06;2.50;;;2.40;;
9117;SDS011;4594;50.994;7.126;2023-02-13T17:35:47;4.13;;;2.57;;
9117;SDS011;4594;50.994;7.126;2023-02-13T17:38:13;2.67;;;2.57;;
9117;SDS011;4594;50.994;7.126;2023-02-13T17:40:40;3.10;;;2.80;;
9117;SDS011;4594;50.994;7.126;2023-02-13T17:43:08;5.63;;;4.87;;
9117;SDS011;4594;50.994;7.126;2023-02-13T17:45:40;3.33;;;3.13;;
9117;SDS011;4594;50.994;7.126;2023-02-13T17:48:07;13.57;;;8.70;;
9117;SDS011;4594;50.994;7.126;2023-02-13T17:50:34;11.90;;;7.20;;
9117;SDS011;4594;50.994;7.126;2023-02-13T17:53:00;13.83;;;8.13;;
9117;SDS011;4594;50.994;7.126;2023-02-13T17:55:30;32.77;;;18.30;;
9117;SDS011;4594;50.994;7.126;2023-02-13T17:57:58;29.43;;;15.73;;
9117;SDS011;4594;50.994;7.126;2023-02-13T18:00:26;17.37;;;8.50;;
9117;SDS011;4594;50.994;7.126;2023-02-13T18:02:57;9.20;;;6.23;;
9117;SDS011;4594;50.994;7.126;2023-02-13T18:05:24;5.87;;;4.80;;
9117;SDS011;4594;50.994;7.126;2023-02-13T18:07:51;5.10;;;3.83;;
9117;SDS011;4594;50.994;7.126;2023-02-13T18:12:49;3.60;;;3.30;;
9117;SDS011;4594;50.994;7.126;2023-02-13T18:15:17;3.73;;;3.43;;
9117;SDS011;4594;50.994;7.126;2023-02-13T18:17:43;4.27;;;3.57;;
9117;SDS011;4594;50.994;7.126;2023-02-13T18:20:11;4.67;;;3.37;;
9117;SDS011;4594;50.994;7.126;2023-02-13T18:22:41;4.37;;;3.77;;
9117;SDS011;4594;50.994;7.126;2023-02-13T18:25:07;3.60;;;3.30;;
9117;SDS011;4594;50.994;7.126;2023-02-13T18:27:33;3.57;;;3.37;;
9117;SDS011;4594;50.994;7.126;2023-02-13T18:29:59;3.80;;;3.50;;
9117;SDS011;4594;50.994;7.126;2023-02-13T18:32:25;3.60;;;3.30;;
9117;SDS011;4594;50.994;7.126;2023-02-13T18:34:51;3.73;;;3.43;;
9117;SDS011;4594;50.994;7.126;2023-02-13T18:37:18;3.67;;;3.37;;
9117;SDS011;4594;50.994;7.126;2023-02-13T18:39:44;3.53;;;3.33;;
9117;SDS011;4594;50.994;7.126;2023-02-13T18:42:10;3.97;;;3.67;;
9117;SDS011;4594;50.994;7.126;2023-02-13T18:44:37;3.70;;;3.33;;
9117;SDS011;4594;50.994;7.126;2023-02-13T18:47:04;4.40;;;4.00;;
9117;SDS011;4594;50.994;7.126;2023-02-13T18:49:30;3.57;;;3.33;;
9117;SDS011;4594;50.994;7.126;2023-02-13T18:51:56;3.93;;;3.63;;
9117;SDS011;4594;50.994;7.126;2023-02-13T18:54:22;5.57;;;3.90;;